Time;durP1;ratioP1;P1;durP2;ratioP2;P2;SDS_P1;SDS_P2;PMS_P1;PMS_P2;Temp;Humidity;BMP_temperature;BMP_pressure;BME280_temperature;BME280_humidity;BME280_pressure;Samples;Min_cycle;Max_cycle;Signal;HPM_P1;HPM_P2
2022/05/06 00:01:21;;;;;;;32.08;11.23;;;;;;;12.64;64.03;100405.66;5091307;28;20040;-80
2022/05/06 00:03:52;;;;;;;43.63;11.75;;;;;;;12.83;63.88;100408.75;5092214;28;20288;-79
2022/05/06 00:06:22;;;;;;;32.15;11.13;;;;;;;12.90;63.61;100402.47;5091402;28;20040;-79
2022/05/06 00:08:55;;;;;;;57.38;13.55;;;;;;;12.99;62.40;100395.25;5092221;28;20404;-80
2022/05/06 00:11:26;;;;;;;46.03;12.10;;;;;;;13.07;61.90;100409.03;5091735;28;20053;-80
2022/05/06 00:13:56;;;;;;;44.92;12.23;;;;;;;13.17;61.40;100405.28;5092058;28;20046;-79
2022/05/06 00:16:28;;;;;;;51.80;12.40;;;;;;;13.24;60.73;100412.13;5089207;28;20163;-80
2022/05/06 00:18:59;;;;;;;41.33;11.57;;;;;;;13.32;60.20;100415.44;5091891;28;20048;-78
2022/05/06 00:21:30;;;;;;;41.15;11.38;;;;;;;13.46;60.88;100407.22;5092295;28;20347;-82
2022/05/06 00:24:02;;;;;;;36.42;12.18;;;;;;;13.74;61.00;100404.72;5091293;28;20380;-84
2022/05/06 00:26:37;;;;;;;36.63;11.18;;;;;;;13.90;59.84;100414.78;5097242;28;20059;-85
2022/05/06 00:29:09;;;;;;;29.85;11.05;;;;;;;14.08;59.52;100395.03;5099847;28;20118;-82
2022/05/06 00:31:39;;;;;;;34.15;12.02;;;;;;;14.42;58.93;100405.41;5092238;28;20048;-85
2022/05/06 00:34:10;;;;;;;36.13;12.13;;;;;;;14.70;58.73;100389.69;5091990;28;20052;-84
2022/05/06 00:36:41;;;;;;;36.60;11.45;;;;;;;14.88;57.99;100393.53;5091917;28;20047;-85
2022/05/06 00:39:13;;;;;;;33.20;11.07;;;;;;;15.20;57.65;100388.97;5091413;28;20052;-85
2022/05/06 00:41:44;;;;;;;31.90;10.88;;;;;;;15.37;55.91;100397.16;5092858;28;20106;-85
2022/05/06 00:44:15;;;;;;;32.28;11.13;;;;;;;15.43;55.75;100388.19;5089508;28;20111;-86
2022/05/06 00:46:49;;;;;;;39.47;11.40;;;;;;;15.66;55.32;100382.13;5090268;28;20047;-85
2022/05/06 00:49:22;;;;;;;28.50;10.60;;;;;;;15.81;54.22;100364.94;5091895;28;20133;-85
2022/05/06 00:51:53;;;;;;;36.08;10.35;;;;;;;15.90;52.63;100365.47;5092056;28;20438;-86
2022/05/06 00:54:26;;;;;;;37.33;10.57;;;;;;;16.02;53.26;100358.00;5092714;28;20041;-84
2022/05/06 00:56:56;;;;;;;26.27;10.73;;;;;;;16.19;52.33;100360.88;5092468;28;20349;-85
2022/05/06 00:59:27;;;;;;;76.47;14.60;;;;;;;16.37;52.13;100352.28;5093474;28;20329;-86
2022/05/06 01:01:59;;;;;;;21.73;9.93;;;;;;;16.51;51.99;100345.59;5105673;28;20350;-85
2022/05/06 01:04:30;;;;;;;25.83;10.43;;;;;;;16.57;51.64;100340.06;5105766;28;20301;-86
2022/05/06 01:07:01;;;;;;;21.03;9.47;;;;;;;16.69;50.78;100339.56;5105867;28;20297;-85
2022/05/06 01:09:34;;;;;;;35.33;10.47;;;;;;;16.83;50.78;100335.56;5106020;28;20294;-86
2022/05/06 01:12:05;;;;;;;24.73;9.60;;;;;;;17.08;50.83;100341.53;5105603;28;20462;-86
2022/05/06 01:14:36;;;;;;;45.13;10.53;;;;;;;17.24;50.05;100332.00;5104920;28;20358;-85
2022/05/06 01:17:08;;;;;;;27.70;9.63;;;;;;;17.34;49.18;100326.34;5106368;28;20304;-86
2022/05/06 01:19:39;;;;;;;29.33;9.83;;;;;;;17.34;49.44;100313.13;5104785;28;20298;-82
2022/05/06 01:22:11;;;;;;;20.60;8.57;;;;;;;17.33;48.72;100299.09;5105261;28;20353;-83
2022/05/06 01:24:43;;;;;;;26.40;9.50;;;;;;;17.55;49.19;100309.56;5103946;28;20296;-85
2022/05/06 01:27:18;;;;;;;46.00;10.23;;;;;;;17.48;48.28;100301.97;5105102;28;20338;-83
2022/05/06 01:29:49;;;;;;;31.50;8.77;;;;;;;17.50;48.78;100301.00;5092753;28;20298;-84
2022/05/06 01:32:22;;;;;;;57.40;10.50;;;;;;;17.66;48.88;100307.28;5089071;28;20297;-85
2022/05/06 01:34:54;;;;;;;147.67;15.60;;;;;;;17.87;48.55;100315.19;5084826;28;20314;-84
2022/05/06 01:37:30;;;;;;;38.80;9.77;;;;;;;18.03;47.44;100310.94;5094865;28;20296;-82
2022/05/06 01:40:04;;;;;;;48.30;10.30;;;;;;;18.08;46.80;100293.06;5104927;28;20312;-81
2022/05/06 01:42:38;;;;;;;32.53;9.70;;;;;;;18.09;46.75;100284.19;5104786;28;20637;-83
2022/05/06 01:45:12;;;;;;;44.00;9.57;;;;;;;18.14;46.74;100288.41;5104934;28;20342;-83
2022/05/06 01:47:43;;;;;;;42.67;9.00;;;;;;;18.07;47.11;100283.44;5104848;28;20439;-83
2022/05/06 01:50:15;;;;;;;29.50;9.03;;;;;;;17.83;46.37;100235.19;5104660;28;20317;-83
2022/05/06 01:52:50;;;;;;;19.80;8.60;;;;;;;18.14;46.33;100275.19;5104692;28;20305;-83
2022/05/06 01:55:22;;;;;;;21.17;8.83;;;;;;;18.27;46.29;100281.59;5103627;28;20309;-82
2022/05/06 01:57:52;;;;;;;19.90;8.27;;;;;;;18.40;45.72;100266.88;5098116;28;20305;-82
2022/05/06 02:00:24;;;;;;;17.10;7.70;;;;;;;18.62;45.43;100271.09;5103208;28;20668;-82
2022/05/06 02:02:56;;;;;;;20.20;8.43;;;;;;;18.73;45.28;100242.31;5104641;28;20309;-84
2022/05/06 02:05:25;;;;;;;22.53;8.60;;;;;;;18.89;44.90;100258.28;5104436;28;20278;-84
2022/05/06 02:07:58;;;;;;;87.77;13.03;;;;;;;18.88;43.96;100246.84;5104114;28;20599;-79
2022/05/06 02:10:28;;;;;;;22.87;9.07;;;;;;;19.06;43.83;100249.50;5103981;28;20087;-83
2022/05/06 02:12:59;;;;;;;30.63;9.30;;;;;;;19.10;42.96;100253.69;5103989;28;20510;-83
2022/05/06 02:15:30;;;;;;;26.90;8.77;;;;;;;19.13;43.60;100266.78;5104240;28;20485;-84
2022/05/06 02:18:00;;;;;;;28.37;8.37;;;;;;;19.05;43.21;100253.94;5104428;28;20604;-84
2022/05/06 02:20:34;;;;;;;17.77;8.37;;;;;;;19.09;43.52;100250.16;5104022;28;20618;-85
2022/05/06 02:23:06;;;;;;;21.03;8.70;;;;;;;19.35;42.65;100246.19;5104269;28;20286;-82
2022/05/06 02:25:37;;;;;;;24.17;9.20;;;;;;;19.40;42.46;100245.94;5104223;28;20285;-85
2022/05/06 02:28:09;;;;;;;28.17;8.90;;;;;;;19.60;42.59;100250.16;5104101;28;20337;-84
2022/05/06 02:33:27;;;;;;;29.67;8.40;;;;;;;19.97;41.58;100234.94;5104170;28;20279;-85
2022/05/06 02:35:58;;;;;;;40.07;9.07;;;;;;;20.18;40.88;100249.63;5103958;28;20362;-84
2022/05/06 02:38:31;;;;;;;26.03;9.07;;;;;;;20.33;41.71;100233.78;5103240;28;20290;-84
2022/05/06 02:41:02;;;;;;;21.93;8.20;;;;;;;20.59;41.21;100235.81;5101884;28;20301;-84
2022/05/06 02:43:32;;;;;;;22.80;9.23;;;;;;;20.70;40.35;100221.91;5103742;28;20286;-84
2022/05/06 02:46:03;;;;;;;22.60;8.57;;;;;;;20.61;39.60;100207.34;5103432;28;20591;-84
2022/05/06 02:48:33;;;;;;;37.33;9.77;;;;;;;20.63;40.20;100216.09;5103123;28;20331;-84
2022/05/06 02:51:04;;;;;;;44.20;9.33;;;;;;;20.57;39.14;100232.41;5083377;28;20346;-85
2022/05/06 02:53:37;;;;;;;33.77;9.13;;;;;;;20.48;40.12;100212.50;5083438;28;20315;-85
2022/05/06 02:56:07;;;;;;;61.53;10.03;;;;;;;20.73;39.32;100226.19;5083222;28;20319;-84
2022/05/06 02:58:38;;;;;;;18.10;7.83;;;;;;;20.69;39.82;100222.84;5083157;28;20287;-84
2022/05/06 03:01:09;;;;;;;38.60;8.23;;;;;;;20.64;39.56;100217.81;5082949;28;20337;-84
2022/05/06 03:03:39;;;;;;;25.33;8.63;;;;;;;20.67;39.27;100222.94;5082990;28;20289;-84
2022/05/06 03:06:10;;;;;;;21.47;7.90;;;;;;;20.68;39.07;100214.03;5082981;28;20291;-83
2022/05/06 03:08:43;;;;;;;26.70;7.70;;;;;;;20.77;38.94;100201.16;5082739;28;20289;-84
2022/05/06 03:11:13;;;;;;;37.73;9.10;;;;;;;20.71;38.77;100210.31;5082773;28;20297;-84
2022/05/06 03:13:44;;;;;;;31.50;8.70;;;;;;;20.73;39.01;100210.25;5082526;28;20342;-85
2022/05/06 03:16:15;;;;;;;27.67;8.87;;;;;;;20.62;39.26;100198.47;5094403;28;20316;-84
2022/05/06 03:18:46;;;;;;;22.97;8.90;;;;;;;20.76;39.21;100188.81;5092085;28;20646;-85
2022/05/06 03:21:16;;;;;;;69.67;11.87;;;;;;;20.87;38.78;100197.84;5089866;28;20310;-84
2022/05/06 03:23:51;;;;;;;49.43;9.13;;;;;;;20.81;38.94;100173.47;5090450;28;20279;-85
2022/05/06 03:26:22;;;;;;;43.57;9.00;;;;;;;20.59;38.04;100161.50;5084168;28;20346;-85
2022/05/06 03:28:56;;;;;;;42.77;9.20;;;;;;;20.69;39.31;100188.31;5092646;28;20536;-86
2022/05/06 03:31:28;;;;;;;23.43;9.43;;;;;;;20.53;38.95;100188.34;5098125;28;20282;-85
2022/05/06 03:34:01;;;;;;;21.30;8.33;;;;;;;20.36;38.82;100180.53;5096487;28;20305;-85
2022/05/06 03:36:32;;;;;;;50.67;9.77;;;;;;;20.18;39.02;100180.63;5084839;28;20285;-84
2022/05/06 03:39:10;;;;;;;25.63;8.97;;;;;;;20.12;39.16;100183.66;5089166;28;20357;-84
2022/05/06 03:41:41;;;;;;;17.73;8.32;;;;;;;20.19;38.76;100174.41;5085247;28;20366;-84
2022/05/06 03:44:12;;;;;;;40.23;8.77;;;;;;;20.44;38.83;100183.56;5082367;28;20059;-84
2022/05/06 03:46:42;;;;;;;22.10;7.70;;;;;;;20.60;38.44;100179.13;5088582;28;20283;-84
2022/05/06 03:49:17;;;;;;;15.33;7.30;;;;;;;20.99;38.75;100179.44;5091309;28;20302;-84
2022/05/06 03:51:47;;;;;;;52.23;9.97;;;;;;;21.37;37.60;100171.78;5095521;28;20298;-84
2022/05/06 03:54:19;;;;;;;328.97;25.03;;;;;;;21.53;36.25;100148.63;5097578;28;20361;-84
2022/05/06 03:56:52;;;;;;;59.87;9.13;;;;;;;21.73;35.88;100181.91;5091353;28;20320;-85
2022/05/06 03:59:22;;;;;;;50.97;8.93;;;;;;;21.54;35.57;100158.31;5094275;28;20353;-85
2022/05/06 04:01:53;;;;;;;23.03;8.70;;;;;;;21.56;35.23;100194.56;5100301;28;20675;-86
2022/05/06 04:04:26;;;;;;;59.07;10.83;;;;;;;21.31;35.69;100170.34;5093288;28;20297;-86
2022/05/06 04:06:57;;;;;;;35.80;8.87;;;;;;;21.32;35.27;100158.78;5098447;28;20606;-86
2022/05/06 04:09:29;;;;;;;31.20;8.73;;;;;;;21.27;35.61;100141.44;5096734;28;20324;-85
2022/05/06 04:12:02;;;;;;;24.77;8.50;;;;;;;21.44;36.14;100159.84;5083898;28;20350;-85
2022/05/06 04:14:34;;;;;;;23.17;8.57;;;;;;;21.45;35.30;100145.59;5092815;28;20289;-85
2022/05/06 04:17:05;;;;;;;24.67;9.43;;;;;;;21.50;35.37;100143.50;5090163;28;20278;-85
2022/05/06 04:19:36;;;;;;;23.13;8.57;;;;;;;21.27;35.76;100109.53;5089738;28;20279;-85
2022/05/06 04:25:03;;;;;;;25.93;8.67;;;;;;;21.27;35.40;100136.09;5087073;28;20631;-84
2022/05/06 04:27:34;;;;;;;22.97;8.40;;;;;;;21.05;35.81;100144.56;5082301;28;20352;-85
2022/05/06 04:30:05;;;;;;;27.40;9.20;;;;;;;20.97;36.40;100138.88;5090798;28;20290;-85
2022/05/06 04:32:36;;;;;;;29.90;8.30;;;;;;;20.90;36.25;100122.44;5098619;28;20317;-84
2022/05/06 04:35:08;;;;;;;35.90;8.03;;;;;;;21.20;36.08;100108.22;5098037;28;20373;-85
2022/05/06 04:37:39;;;;;;;19.13;8.17;;;;;;;21.22;35.36;100093.88;5097353;28;20309;-85
2022/05/06 04:40:12;;;;;;;37.77;8.80;;;;;;;21.20;35.90;100113.53;5096775;28;20346;-84
2022/05/06 04:42:45;;;;;;;20.57;8.37;;;;;;;21.15;35.56;100100.53;5088933;28;20496;-84
2022/05/06 04:45:15;;;;;;;44.13;8.90;;;;;;;21.29;35.40;100118.25;5093714;28;20289;-84
2022/05/06 04:47:48;;;;;;;33.57;8.53;;;;;;;21.42;35.23;100127.19;5095929;28;20314;-84
2022/05/06 04:50:19;;;;;;;23.40;8.10;;;;;;;21.29;34.89;100123.56;5085795;28;20358;-84
2022/05/06 04:52:52;;;;;;;36.20;8.77;;;;;;;21.11;34.53;100115.78;5090091;28;20290;-84
2022/05/06 04:55:24;;;;;;;32.63;7.50;;;;;;;20.98;34.85;100112.19;5090742;28;20279;-84
2022/05/06 04:57:55;;;;;;;25.60;7.50;;;;;;;20.85;35.01;100113.91;5086482;28;20318;-84
2022/05/06 05:00:26;;;;;;;23.47;7.57;;;;;;;20.86;35.07;100099.69;5091792;28;20309;-84
2022/05/06 05:02:57;;;;;;;52.40;9.10;;;;;;;20.88;34.63;100088.00;5097320;28;20361;-85
2022/05/06 05:05:27;;;;;;;74.60;11.07;;;;;;;20.77;34.17;100089.63;5091835;28;20301;-84
2022/05/06 05:07:58;;;;;;;28.50;6.93;;;;;;;20.88;33.82;100071.22;5097390;28;20624;-83
2022/05/06 05:10:34;;;;;;;13.93;6.53;;;;;;;20.99;34.05;100092.69;5084503;28;20346;-80
2022/05/06 05:13:10;;;;;;;18.53;6.77;;;;;;;21.05;33.32;100065.72;5095232;28;20366;-84
2022/05/06 05:15:41;;;;;;;29.30;7.00;;;;;;;21.13;30.94;100069.69;5094413;28;20330;-85
2022/05/06 05:18:11;;;;;;;27.40;5.77;;;;;;;21.08;31.72;100078.78;5092598;28;20291;-85
2022/05/06 05:20:42;;;;;;;89.57;9.23;;;;;;;21.18;30.09;100086.19;5084595;28;20300;-84
2022/05/06 05:23:15;;;;;;;62.50;8.13;;;;;;;21.13;29.93;100090.94;5094832;28;20306;-84
2022/05/06 05:25:48;;;;;;;16.10;5.20;;;;;;;21.06;29.55;100083.34;5100245;28;20341;-84
2022/05/06 05:28:18;;;;;;;18.40;4.73;;;;;;;20.90;29.67;100078.16;5094146;28;20278;-84
2022/05/06 05:30:49;;;;;;;22.73;4.43;;;;;;;21.00;30.05;100081.09;5100407;28;20333;-83
2022/05/06 05:33:20;;;;;;;21.80;4.50;;;;;;;20.93;30.11;100062.97;5101055;28;20369;-83
2022/05/06 05:35:50;;;;;;;11.63;4.13;;;;;;;21.09;29.86;100075.22;5100699;28;20350;-83
2022/05/06 05:38:21;;;;;;;10.37;4.20;;;;;;;20.95;29.16;100056.63;5095492;28;20290;-83
2022/05/06 05:40:53;;;;;;;48.17;6.27;;;;;;;20.89;29.31;100056.97;5100622;28;20313;-83
2022/05/06 05:48:59;;;;;;;46.57;5.73;;;;;;;20.67;28.97;100058.34;5092249;28;20618;-83
2022/05/06 05:51:29;;;;;;;18.37;4.43;;;;;;;20.56;28.82;100050.16;5096730;28;20291;-86
2022/05/06 05:54:00;;;;;;;18.27;4.20;;;;;;;20.61;28.18;100045.41;5087104;28;20686;-85
2022/05/06 05:56:32;;;;;;;51.97;5.53;;;;;;;20.68;27.97;100060.03;5104200;28;20347;-84
2022/05/06 05:59:03;;;;;;;17.03;4.67;;;;;;;20.62;28.41;100033.03;5097891;28;20286;-85
2022/05/06 06:01:33;;;;;;;14.67;3.80;;;;;;;20.55;27.00;100006.00;5091193;28;20321;-85
2022/05/06 06:04:05;;;;;;;16.80;3.77;;;;;;;20.62;26.16;100038.34;5088962;28;20467;-86
2022/05/06 06:06:37;;;;;;;18.80;4.13;;;;;;;20.53;26.54;100030.91;5099930;28;20324;-87
2022/05/06 06:09:08;;;;;;;11.33;3.43;;;;;;;20.49;25.78;100043.50;5104484;28;20283;-87
2022/05/06 06:11:41;;;;;;;15.83;3.50;;;;;;;20.41;25.96;100005.97;5110709;28;20357;-88
2022/05/06 06:14:17;;;;;;;11.43;3.83;;;;;;;20.45;26.33;100010.13;5107672;28;20323;-88
2022/05/06 06:16:50;;;;;;;22.75;4.43;;;;;;;20.51;26.29;100052.22;5107614;28;20308;-88
2022/05/06 06:19:21;;;;;;;13.37;3.30;;;;;;;20.50;26.65;100028.44;5107719;28;20024;-87
2022/05/06 06:21:51;;;;;;;17.57;5.30;;;;;;;20.56;25.52;100034.22;5107587;28;20271;-88
2022/05/06 06:24:24;;;;;;;11.80;3.10;;;;;;;20.32;24.99;100019.78;5107112;28;20348;-89
2022/05/06 06:26:56;;;;;;;18.43;3.73;;;;;;;20.23;25.27;100010.59;5108366;28;20263;-89
2022/05/06 06:29:29;;;;;;;8.00;3.40;;;;;;;20.13;25.55;100036.81;5106353;28;20302;-88
2022/05/06 06:32:00;;;;;;;20.07;4.57;;;;;;;20.04;24.69;100002.88;5110530;28;20267;-87
2022/05/06 06:34:30;;;;;;;18.97;4.03;;;;;;;19.91;24.75;100016.00;5117014;28;20368;-88
2022/05/06 06:37:01;;;;;;;34.87;5.10;;;;;;;19.79;24.92;100012.31;5111509;28;20333;-88
2022/05/06 06:39:34;;;;;;;24.53;3.90;;;;;;;19.25;25.51;99948.28;5105746;28;20283;-88
2022/05/06 06:47:41;;;;;;;40.47;5.27;;;;;;;20.06;24.78;100008.94;5365860;22;20613;-58
2022/05/06 06:50:12;;;;;;;12.77;4.27;;;;;;;20.21;24.94;100012.47;5071594;28;20299;-58
2022/05/06 06:52:43;;;;;;;63.50;6.53;;;;;;;19.97;24.48;100006.84;5071777;28;20283;-58
2022/05/06 06:55:14;;;;;;;16.07;4.10;;;;;;;19.87;25.21;100008.31;5072784;28;20290;-58
2022/05/06 06:57:46;;;;;;;233.20;17.83;;;;;;;19.78;25.39;100010.56;5073118;28;20287;-58
2022/05/06 07:00:18;;;;;;;45.13;5.80;;;;;;;19.82;25.76;100012.13;5074500;28;20297;-58
2022/05/06 07:02:49;;;;;;;42.83;5.83;;;;;;;19.85;26.12;99999.63;5073386;28;20316;-58
2022/05/06 07:05:20;;;;;;;54.00;6.37;;;;;;;19.75;26.57;100024.03;5073514;28;20283;-59
2022/05/06 07:13:47;;;;;;;32.77;5.50;;;;;;;19.67;28.52;100020.97;5073717;28;20286;-58
2022/05/06 07:16:18;;;;;;;19.53;4.47;;;;;;;19.55;29.68;100005.75;5073230;28;20316;-58
2022/05/06 07:18:49;;;;;;;62.43;8.97;;;;;;;19.42;30.41;99989.69;5073606;28;20282;-58
2022/05/06 07:21:19;;;;;;;33.13;6.93;;;;;;;19.25;31.62;100006.53;5073404;28;20283;-57
2022/05/06 07:23:50;;;;;;;16.27;6.43;;;;;;;19.12;32.14;100010.81;5073195;28;20348;-57
2022/05/06 07:26:20;;;;;;;20.87;6.77;;;;;;;18.98;32.98;100008.09;5071855;28;20907;-57
2022/05/06 07:28:53;;;;;;;30.23;7.47;;;;;;;18.81;33.52;100007.22;5072498;28;20319;-57
2022/05/06 07:31:24;;;;;;;24.00;7.20;;;;;;;18.66;34.16;100008.00;5073163;28;20648;-56
2022/05/06 07:33:55;;;;;;;19.40;7.70;;;;;;;18.48;34.98;99992.19;5070528;28;20291;-56
2022/05/06 07:36:26;;;;;;;31.47;8.83;;;;;;;18.32;35.57;100001.84;5073012;28;20296;-57
2022/05/06 07:38:56;;;;;;;34.70;9.20;;;;;;;18.21;36.32;99996.28;5072326;28;20323;-57
2022/05/06 07:41:27;;;;;;;20.73;8.20;;;;;;;18.11;36.90;100007.34;5072166;28;20287;-57
2022/05/06 07:43:59;;;;;;;34.97;10.73;;;;;;;18.04;37.53;100005.94;5071744;28;20313;-56
2022/05/06 07:46:30;;;;;;;31.50;10.40;;;;;;;17.99;37.90;100002.69;5073277;28;20312;-56
2022/05/06 07:49:02;;;;;;;25.50;9.13;;;;;;;17.94;38.24;99999.41;5073847;28;20470;-56
2022/05/06 07:51:32;;;;;;;23.10;9.90;;;;;;;17.84;38.77;100011.38;5073918;28;20294;-57
2022/05/06 07:54:03;;;;;;;52.83;11.87;;;;;;;17.83;39.23;99988.53;5073595;28;20291;-56
2022/05/06 07:56:34;;;;;;;38.30;11.60;;;;;;;17.80;39.57;99996.63;5073363;28;20476;-56
2022/05/06 07:59:06;;;;;;;25.60;10.40;;;;;;;17.82;39.97;99989.47;5073842;28;20289;-56
2022/05/06 08:04:37;;;;;;;33.80;10.77;;;;;;;18.06;39.56;99993.50;5073069;28;20356;-57
2022/05/06 08:07:08;;;;;;;28.33;10.50;;;;;;;18.07;39.97;99987.28;5073282;28;20278;-56
2022/05/06 08:09:39;;;;;;;22.07;8.90;;;;;;;18.15;40.01;99996.63;5072176;28;20342;-55
2022/05/06 08:12:11;;;;;;;23.43;9.10;;;;;;;18.05;40.11;99986.50;5073382;28;20851;-56
2022/05/06 08:14:44;;;;;;;16.17;7.80;;;;;;;17.87;40.51;99987.44;5072965;28;20280;-57
2022/05/06 08:17:15;;;;;;;20.70;8.13;;;;;;;17.63;41.02;99977.16;5072956;28;20363;-57
2022/05/06 08:19:46;;;;;;;21.07;9.40;;;;;;;17.45;42.00;99970.16;5072913;28;20355;-56
2022/05/06 08:22:16;;;;;;;16.80;8.73;;;;;;;17.25;42.23;99957.94;5072678;28;20282;-57
2022/05/06 08:24:47;;;;;;;21.37;9.23;;;;;;;17.08;42.56;99977.22;5072829;28;20352;-56
2022/05/06 08:27:39;;;;;;;22.27;9.77;;;;;;;16.96;42.98;99977.81;5072817;28;20289;-57
2022/05/06 08:30:13;;;;;;;20.80;9.27;;;;;;;16.89;43.24;99993.06;5072635;28;20314;-57
2022/05/06 08:32:44;;;;;;;29.90;9.13;;;;;;;16.90;43.47;99972.78;5073146;28;20346;-58
2022/05/06 08:35:15;;;;;;;16.83;7.90;;;;;;;16.97;43.51;99974.22;5073171;28;20362;-56
2022/05/06 08:37:46;;;;;;;15.33;7.20;;;;;;;16.97;43.58;99980.38;5073039;28;20290;-56
2022/05/06 08:40:20;;;;;;;27.90;8.07;;;;;;;16.99;43.44;99982.94;5072347;28;20271;-56
2022/05/06 08:42:51;;;;;;;26.60;9.97;;;;;;;16.90;43.61;99956.97;5072363;28;20283;-57
2022/05/06 08:51:06;;;;;;;20.97;8.20;;;;;;;16.96;43.96;99972.53;5072729;28;20311;-57
2022/05/06 08:53:39;;;;;;;18.00;7.97;;;;;;;16.91;44.08;99970.09;5072681;28;20293;-58
2022/05/06 08:56:10;;;;;;;20.50;7.80;;;;;;;16.92;44.55;99965.66;5072756;28;20529;-56
2022/05/06 08:58:41;;;;;;;25.47;6.90;;;;;;;16.79;44.54;99945.13;5072937;28;20306;-55
2022/05/06 09:01:16;;;;;;;16.93;7.00;;;;;;;16.84;44.60;99962.53;5072779;28;20309;-56
2022/05/06 09:03:48;;;;;;;12.70;6.33;;;;;;;16.78;44.72;99959.25;5072432;28;20360;-56
2022/05/06 09:06:20;;;;;;;13.73;6.83;;;;;;;16.65;45.18;99947.56;5072724;28;20301;-56
2022/05/06 09:08:53;;;;;;;10.57;6.17;;;;;;;16.62;45.28;99955.59;5072304;28;20435;-57
2022/05/06 09:14:09;;;;;;;17.90;7.00;;;;;;;16.28;46.10;99948.38;5072338;28;20294;-57
2022/05/06 09:16:40;;;;;;;16.83;6.07;;;;;;;16.21;46.39;99952.22;5072776;28;20358;-57
2022/05/06 09:19:21;;;;;;;15.83;6.83;;;;;;;16.10;46.71;99960.56;5072043;28;20283;-56
2022/05/06 09:22:11;;;;;;;16.67;6.90;;;;;;;15.98;47.30;99945.31;5075840;28;20301;-56
2022/05/06 09:24:43;;;;;;;13.20;6.80;;;;;;;15.87;47.64;99954.53;5076057;28;20362;-56
2022/05/06 09:27:15;;;;;;;49.53;8.83;;;;;;;15.81;47.82;99964.50;5075901;28;20593;-57
2022/05/06 09:29:45;;;;;;;24.07;7.23;;;;;;;15.70;48.04;99946.47;5073157;28;20340;-57
2022/05/06 09:32:21;;;;;;;21.97;7.33;;;;;;;15.65;48.24;99953.69;5074634;28;20301;-56
2022/05/06 09:34:53;;;;;;;23.80;7.57;;;;;;;15.57;48.49;99955.81;5075632;28;20267;-55
2022/05/06 09:37:32;;;;;;;16.90;6.73;;;;;;;15.49;48.83;99959.59;5075886;28;20330;-56
2022/05/06 09:40:06;;;;;;;19.48;7.47;;;;;;;15.42;49.29;99973.09;5075090;28;20283;-56
2022/05/06 09:42:37;;;;;;;26.93;7.70;;;;;;;15.32;49.55;99962.97;5074857;28;20379;-56
2022/05/06 09:45:10;;;;;;;22.40;7.57;;;;;;;15.27;49.99;99964.88;5074596;28;20311;-56
2022/05/06 09:47:43;;;;;;;22.47;7.37;;;;;;;15.25;49.75;99971.13;5072912;28;20797;-56
2022/05/06 09:50:14;;;;;;;20.50;6.83;;;;;;;15.28;49.74;99965.78;5073984;28;20544;-56
2022/05/06 09:52:59;;;;;;;15.90;6.87;;;;;;;15.26;49.90;99963.19;5074585;28;20342;-56
2022/05/06 09:55:31;;;;;;;24.47;7.77;;;;;;;15.19;50.37;99956.44;5074664;28;20792;-57
2022/05/06 09:58:02;;;;;;;19.00;7.47;;;;;;;15.13;50.74;99946.19;5074614;28;21207;-57
2022/05/06 10:00:33;;;;;;;23.10;7.17;;;;;;;15.06;51.00;99955.25;5073660;28;20326;-57
2022/05/06 10:03:06;;;;;;;39.37;7.70;;;;;;;15.00;50.78;99951.09;5073539;28;20275;-57
2022/05/06 10:05:38;;;;;;;17.77;7.43;;;;;;;14.99;50.93;99949.34;5074810;28;20605;-56
2022/05/06 10:08:16;;;;;;;20.92;8.48;;;;;;;14.93;51.13;99949.59;5074296;28;20470;-57
2022/05/06 10:10:56;;;;;;;53.47;8.82;;;;;;;14.79;51.35;99941.41;5074593;28;20115;-56
2022/05/06 10:13:30;;;;;;;21.40;7.82;;;;;;;14.78;51.73;99950.22;5074369;28;20040;-57
2022/05/06 10:16:01;;;;;;;25.23;8.15;;;;;;;14.75;51.95;99939.78;5073785;28;20066;-56
2022/05/06 10:18:38;;;;;;;15.97;7.93;;;;;;;14.76;51.97;99952.03;5073982;28;20116;-56
2022/05/06 10:21:09;;;;;;;17.75;7.72;;;;;;;14.70;52.00;99949.63;5075070;28;20294;-57
2022/05/06 10:23:53;;;;;;;21.42;8.88;;;;;;;14.64;52.45;99959.47;5073757;28;20056;-56
2022/05/06 10:26:45;;;;;;;20.10;8.43;;;;;;;14.52;52.93;99970.41;5074114;28;20123;-56
2022/05/06 10:32:55;;;;;;;17.85;9.20;;;;;;;14.23;53.81;99969.72;5071162;28;20060;-57
2022/05/06 10:35:41;;;;;;;16.88;8.20;;;;;;;14.20;54.25;99980.34;5073805;28;20052;-56
2022/05/06 10:38:23;;;;;;;17.75;8.30;;;;;;;14.11;54.71;99977.19;5074473;28;20112;-57
2022/05/06 10:41:02;;;;;;;25.67;9.32;;;;;;;14.04;54.85;99989.69;5073919;28;20364;-56
2022/05/06 10:43:52;;;;;;;18.38;8.77;;;;;;;14.01;54.96;99992.41;5074407;28;20139;-57
2022/05/06 10:46:41;;;;;;;19.95;9.20;;;;;;;13.87;55.30;99986.78;5073806;28;20074;-57
2022/05/06 10:49:42;;;;;;;;;;;;;;;13.86;55.44;99998.19;5074004;28;20052;-57
2022/05/06 10:52:42;;;;;;;16.90;8.95;;;;;;;13.76;56.08;100001.13;5012074;28;19932;-56
2022/05/06 10:55:14;;;;;;;19.48;9.18;;;;;;;13.53;56.15;99977.41;5072794;28;20346;-57
2022/05/06 10:57:50;;;;;;;21.92;10.27;;;;;;;13.48;56.59;99963.56;5072782;28;20086;-57
2022/05/06 11:00:22;;;;;;;19.10;9.20;;;;;;;13.61;56.42;99985.91;5073665;28;20144;-57
2022/05/06 11:02:52;;;;;;;17.85;9.50;;;;;;;13.56;56.89;99982.56;5073791;28;20083;-58
2022/05/06 11:05:24;;;;;;;19.80;9.52;;;;;;;13.40;57.10;99965.59;5073689;28;20091;-55
2022/05/06 11:08:01;;;;;;;18.85;8.73;;;;;;;13.46;57.28;99991.66;5073428;28;20040;-55
2022/05/06 11:10:34;;;;;;;21.10;9.60;;;;;;;13.37;57.64;99982.28;5073523;28;20095;-56
2022/05/06 11:13:26;;;;;;;21.80;9.68;;;;;;;13.27;57.67;99986.97;5073123;28;20114;-56
2022/05/06 11:15:58;;;;;;;21.77;9.18;;;;;;;13.31;58.12;99999.09;5074216;28;20732;-56
2022/05/06 11:18:29;;;;;;;20.55;9.38;;;;;;;13.24;58.24;99997.53;5073107;28;20052;-56
2022/05/06 11:21:00;;;;;;;27.08;10.20;;;;;;;13.16;58.38;99995.16;5071291;28;20060;-55
2022/05/06 11:23:32;;;;;;;34.53;10.25;;;;;;;13.09;58.63;99992.78;5073193;28;20056;-55
2022/05/06 11:26:03;;;;;;;20.63;9.85;;;;;;;13.07;58.63;99977.06;5073265;28;20048;-55
2022/05/06 11:28:35;;;;;;;28.08;10.43;;;;;;;13.03;58.93;99987.72;5073487;28;20049;-55
2022/05/06 11:31:06;;;;;;;19.60;9.63;;;;;;;12.97;59.33;99967.78;5073350;28;20151;-58
2022/05/06 11:33:38;;;;;;;18.63;10.32;;;;;;;12.91;59.43;99963.59;5073023;28;20098;-56
2022/05/06 11:36:09;;;;;;;24.17;10.48;;;;;;;12.81;59.51;99946.44;5073012;28;20115;-56
2022/05/06 11:38:47;;;;;;;26.50;9.93;;;;;;;12.83;59.62;99949.88;5073363;28;20053;-56
2022/05/06 11:41:18;;;;;;;21.55;9.60;;;;;;;12.79;59.56;99927.25;5073133;28;20055;-56
2022/05/06 11:43:49;;;;;;;22.02;9.77;;;;;;;12.64;59.43;99897.13;5072872;28;20072;-56
2022/05/06 11:49:09;;;;;;;20.58;8.90;;;;;;;12.29;59.12;99836.16;5073019;28;20346;-57
2022/05/06 11:51:43;;;;;;;20.13;9.90;;;;;;;12.81;59.36;99928.06;5073103;28;20049;-56
2022/05/06 11:54:17;;;;;;;28.63;9.68;;;;;;;12.76;59.02;99911.63;5073049;28;20048;-57
2022/05/06 11:56:50;;;;;;;22.48;9.63;;;;;;;12.78;59.15;99915.06;5072178;28;20056;-57
2022/05/06 11:59:22;;;;;;;24.17;9.73;;;;;;;12.76;59.14;99922.13;5072205;28;20078;-57
2022/05/06 12:01:52;;;;;;;21.10;10.20;;;;;;;12.57;59.27;99900.84;5072707;28;20094;-57
2022/05/06 12:04:32;;;;;;;30.48;10.50;;;;;;;12.59;59.43;99924.38;5072690;28;20040;-56
2022/05/06 12:07:02;;;;;;;20.88;10.00;;;;;;;12.50;59.90;99936.88;5072750;28;20067;-56
2022/05/06 12:09:43;;;;;;;19.48;9.70;;;;;;;12.41;59.99;99939.75;5072682;28;20052;-54
2022/05/06 12:12:14;;;;;;;22.60;10.32;;;;;;;12.37;59.87;99945.97;5069677;28;20386;-57
2022/05/06 12:14:47;;;;;;;24.33;10.57;;;;;;;12.35;59.77;99947.78;5073032;28;20273;-57
2022/05/06 12:17:17;;;;;;;20.00;9.38;;;;;;;12.34;59.82;99935.59;5072168;28;20368;-55
2022/05/06 12:19:49;;;;;;;25.23;9.68;;;;;;;12.21;59.67;99923.75;5071199;28;20066;-56
2022/05/06 12:22:24;;;;;;;24.60;10.00;;;;;;;12.32;59.36;99932.16;5071971;28;20044;-56
2022/05/06 12:24:58;;;;;;;24.08;10.15;;;;;;;12.29;59.49;99945.34;5072750;28;20080;-53